sensor_id;sensor_type;location;lat;lon;timestamp;temperature;humidity
20457;DHT22;10387;51.102;6.848;2023-02-12T00:02:19;7.10;99.90
20457;DHT22;10387;51.102;6.848;2023-02-12T00:04:46;7.10;99.90
20457;DHT22;10387;51.102;6.848;2023-02-12T00:07:12;7.10;99.90
20457;DHT22;10387;51.102;6.848;2023-02-12T00:09:37;7.00;99.90
20457;DHT22;10387;51.102;6.848;2023-02-12T00:12:03;7.00;99.90
20457;DHT22;10387;51.102;6.848;2023-02-12T00:14:29;7.00;99.90
20457;DHT22;10387;51.102;6.848;2023-02-12T00:16:55;7.00;99.90
20457;DHT22;10387;51.102;6.848;2023-02-12T00:19:21;7.00;99.90
20457;DHT22;10387;51.102;6.848;2023-02-12T00:21:48;7.00;99.90
20457;DHT22;10387;51.102;6.848;2023-02-12T00:24:14;7.00;99.90
20457;DHT22;10387;51.102;6.848;2023-02-12T00:26:39;7.00;99.90
20457;DHT22;10387;51.102;6.848;2023-02-12T00:29:05;7.00;99.90
20457;DHT22;10387;51.102;6.848;2023-02-12T00:31:31;7.10;99.90
20457;DHT22;10387;51.102;6.848;2023-02-12T00:33:58;7.10;99.90
20457;DHT22;10387;51.102;6.848;2023-02-12T00:36:25;7.00;99.90
20457;DHT22;10387;51.102;6.848;2023-02-12T00:38:53;7.10;99.90
20457;DHT22;10387;51.102;6.848;2023-02-12T00:41:20;7.10;99.90
20457;DHT22;10387;51.102;6.848;2023-02-12T00:43:45;7.00;99.90
20457;DHT22;10387;51.102;6.848;2023-02-12T00:46:11;7.00;99.90
20457;DHT22;10387;51.102;6.848;2023-02-12T00:48:38;7.10;99.90
20457;DHT22;10387;51.102;6.848;2023-02-12T00:51:04;7.10;99.90
20457;DHT22;10387;51.102;6.848;2023-02-12T00:53:31;7.10;99.90
20457;DHT22;10387;51.102;6.848;2023-02-12T00:55:57;7.10;99.90
20457;DHT22;10387;51.102;6.848;2023-02-12T00:58:22;7.10;99.90
20457;DHT22;10387;51.102;6.848;2023-02-12T01:00:48;7.00;99.90
20457;DHT22;10387;51.102;6.848;2023-02-12T01:03:14;7.00;99.90
20457;DHT22;10387;51.102;6.848;2023-02-12T01:05:40;7.00;99.90
20457;DHT22;10387;51.102;6.848;2023-02-12T01:08:06;7.00;99.90
20457;DHT22;10387;51.102;6.848;2023-02-12T01:10:31;7.00;99.90
20457;DHT22;10387;51.102;6.848;2023-02-12T01:12:57;7.00;99.90
20457;DHT22;10387;51.102;6.848;2023-02-12T01:15:24;7.10;99.90
20457;DHT22;10387;51.102;6.848;2023-02-12T01:17:51;7.10;99.90
20457;DHT22;10387;51.102;6.848;2023-02-12T01:20:20;7.10;99.90
20457;DHT22;10387;51.102;6.848;2023-02-12T01:22:47;7.10;99.90
20457;DHT22;10387;51.102;6.848;2023-02-12T01:25:13;7.00;99.90
20457;DHT22;10387;51.102;6.848;2023-02-12T01:27:39;7.00;99.90
20457;DHT22;10387;51.102;6.848;2023-02-12T01:30:07;7.10;99.90
20457;DHT22;10387;51.102;6.848;2023-02-12T01:32:33;7.00;99.90
20457;DHT22;10387;51.102;6.848;2023-02-12T01:34:59;7.00;99.90
20457;DHT22;10387;51.102;6.848;2023-02-12T01:37:25;7.00;99.90
20457;DHT22;10387;51.102;6.848;2023-02-12T01:39:51;6.90;99.90
20457;DHT22;10387;51.102;6.848;2023-02-12T01:42:18;6.90;99.90
20457;DHT22;10387;51.102;6.848;2023-02-12T01:47:30;6.90;99.90
20457;DHT22;10387;51.102;6.848;2023-02-12T01:49:55;6.80;99.90
20457;DHT22;10387;51.102;6.848;2023-02-12T01:52:27;6.80;99.90
20457;DHT22;10387;51.102;6.848;2023-02-12T01:54:57;6.80;99.90
20457;DHT22;10387;51.102;6.848;2023-02-12T01:57:26;6.80;99.90
20457;DHT22;10387;51.102;6.848;2023-02-12T01:59:54;6.80;99.90
20457;DHT22;10387;51.102;6.848;2023-02-12T02:02:21;6.80;99.90
20457;DHT22;10387;51.102;6.848;2023-02-12T02:04:50;6.90;99.90
20457;DHT22;10387;51.102;6.848;2023-02-12T02:07:16;6.90;99.90
20457;DHT22;10387;51.102;6.848;2023-02-12T02:09:42;6.90;99.90
20457;DHT22;10387;51.102;6.848;2023-02-12T02:12:08;6.80;99.90
20457;DHT22;10387;51.102;6.848;2023-02-12T02:14:58;6.80;99.90
20457;DHT22;10387;51.102;6.848;2023-02-12T02:24:09;6.80;99.90
20457;DHT22;10387;51.102;6.848;2023-02-12T02:26:21;6.80;99.90
20457;DHT22;10387;51.102;6.848;2023-02-12T02:29:03;6.80;99.90
20457;DHT22;10387;51.102;6.848;2023-02-12T02:34:33;6.90;99.90
20457;DHT22;10387;51.102;6.848;2023-02-12T02:37:30;6.80;99.90
20457;DHT22;10387;51.102;6.848;2023-02-12T02:40:13;6.80;99.90
20457;DHT22;10387;51.102;6.848;2023-02-12T02:42:47;6.80;99.90
20457;DHT22;10387;51.102;6.848;2023-02-12T02:45:30;6.80;99.90
20457;DHT22;10387;51.102;6.848;2023-02-12T02:48:23;6.80;99.90
20457;DHT22;10387;51.102;6.848;2023-02-12T02:50:56;6.80;99.90
20457;DHT22;10387;51.102;6.848;2023-02-12T02:53:31;6.80;99.90
20457;DHT22;10387;51.102;6.848;2023-02-12T02:55:59;6.80;99.90
20457;DHT22;10387;51.102;6.848;2023-02-12T02:58:40;6.80;99.90
20457;DHT22;10387;51.102;6.848;2023-02-12T03:01:29;6.70;99.90
20457;DHT22;10387;51.102;6.848;2023-02-12T03:04:09;6.70;99.90
20457;DHT22;10387;51.102;6.848;2023-02-12T03:06:47;6.70;99.90
20457;DHT22;10387;51.102;6.848;2023-02-12T03:09:44;6.70;99.90
20457;DHT22;10387;51.102;6.848;2023-02-12T03:12:54;6.70;99.90
20457;DHT22;10387;51.102;6.848;2023-02-12T03:15:30;6.60;99.90
20457;DHT22;10387;51.102;6.848;2023-02-12T03:17:57;6.60;99.90
20457;DHT22;10387;51.102;6.848;2023-02-12T03:20:31;6.50;99.90
20457;DHT22;10387;51.102;6.848;2023-02-12T03:23:16;6.60;99.90
20457;DHT22;10387;51.102;6.848;2023-02-12T03:26:06;6.60;99.90
20457;DHT22;10387;51.102;6.848;2023-02-12T03:28:36;6.70;99.90
20457;DHT22;10387;51.102;6.848;2023-02-12T03:42:12;6.70;99.90
20457;DHT22;10387;51.102;6.848;2023-02-12T03:47:19;6.60;99.90
20457;DHT22;10387;51.102;6.848;2023-02-12T03:50:08;6.60;99.90
20457;DHT22;10387;51.102;6.848;2023-02-12T03:52:35;6.60;99.90
20457;DHT22;10387;51.102;6.848;2023-02-12T03:55:02;6.60;99.90
20457;DHT22;10387;51.102;6.848;2023-02-12T03:57:33;6.50;99.90
20457;DHT22;10387;51.102;6.848;2023-02-12T04:00:07;6.60;99.90
20457;DHT22;10387;51.102;6.848;2023-02-12T04:02:41;6.60;99.90
20457;DHT22;10387;51.102;6.848;2023-02-12T04:05:08;6.60;99.90
20457;DHT22;10387;51.102;6.848;2023-02-12T04:07:40;6.60;99.90
20457;DHT22;10387;51.102;6.848;2023-02-12T04:10:06;6.60;99.90
20457;DHT22;10387;51.102;6.848;2023-02-12T04:12:33;6.60;99.90
20457;DHT22;10387;51.102;6.848;2023-02-12T04:15:23;6.60;99.90
20457;DHT22;10387;51.102;6.848;2023-02-12T04:18:11;6.60;99.90
20457;DHT22;10387;51.102;6.848;2023-02-12T04:29:40;6.60;99.90
20457;DHT22;10387;51.102;6.848;2023-02-12T04:32:17;6.60;99.90
20457;DHT22;10387;51.102;6.848;2023-02-12T04:37:51;6.70;99.90
20457;DHT22;10387;51.102;6.848;2023-02-12T04:40:20;6.70;99.90
20457;DHT22;10387;51.102;6.848;2023-02-12T04:42:48;6.70;99.90
20457;DHT22;10387;51.102;6.848;2023-02-12T04:45:35;6.70;99.90
20457;DHT22;10387;51.102;6.848;2023-02-12T04:48:01;6.60;99.90
20457;DHT22;10387;51.102;6.848;2023-02-12T04:50:38;6.50;99.90
20457;DHT22;10387;51.102;6.848;2023-02-12T04:53:04;6.50;99.90
20457;DHT22;10387;51.102;6.848;2023-02-12T04:55:30;6.50;99.90
20457;DHT22;10387;51.102;6.848;2023-02-12T04:57:56;6.50;99.90
20457;DHT22;10387;51.102;6.848;2023-02-12T05:00:21;6.50;99.90
20457;DHT22;10387;51.102;6.848;2023-02-12T05:02:47;6.50;99.90
20457;DHT22;10387;51.102;6.848;2023-02-12T05:05:13;6.50;99.90
20457;DHT22;10387;51.102;6.848;2023-02-12T05:07:38;6.50;99.90
20457;DHT22;10387;51.102;6.848;2023-02-12T05:10:04;6.50;99.90
20457;DHT22;10387;51.102;6.848;2023-02-12T05:12:30;6.50;99.90
20457;DHT22;10387;51.102;6.848;2023-02-12T05:17:30;6.60;99.90
20457;DHT22;10387;51.102;6.848;2023-02-12T05:19:56;6.60;99.90
20457;DHT22;10387;51.102;6.848;2023-02-12T05:22:22;6.60;99.90
20457;DHT22;10387;51.102;6.848;2023-02-12T05:24:48;6.60;99.90
20457;DHT22;10387;51.102;6.848;2023-02-12T05:27:13;6.60;99.90
20457;DHT22;10387;51.102;6.848;2023-02-12T05:29:39;6.60;99.90
20457;DHT22;10387;51.102;6.848;2023-02-12T05:32:05;6.70;99.90
20457;DHT22;10387;51.102;6.848;2023-02-12T05:34:32;6.80;99.90
20457;DHT22;10387;51.102;6.848;2023-02-12T05:36:58;6.80;99.90
20457;DHT22;10387;51.102;6.848;2023-02-12T05:39:24;6.80;99.90
20457;DHT22;10387;51.102;6.848;2023-02-12T05:41:49;6.70;99.90
20457;DHT22;10387;51.102;6.848;2023-02-12T05:44:15;6.70;99.90
20457;DHT22;10387;51.102;6.848;2023-02-12T05:46:41;6.70;99.90
20457;DHT22;10387;51.102;6.848;2023-02-12T05:49:07;6.80;99.90
20457;DHT22;10387;51.102;6.848;2023-02-12T05:51:33;6.70;99.90
20457;DHT22;10387;51.102;6.848;2023-02-12T05:54:01;6.70;99.90
20457;DHT22;10387;51.102;6.848;2023-02-12T05:56:35;6.80;99.90
20457;DHT22;10387;51.102;6.848;2023-02-12T05:59:11;6.90;99.90
20457;DHT22;10387;51.102;6.848;2023-02-12T06:01:39;6.80;99.90
20457;DHT22;10387;51.102;6.848;2023-02-12T06:04:09;6.80;99.90
20457;DHT22;10387;51.102;6.848;2023-02-12T06:06:35;6.80;99.90
20457;DHT22;10387;51.102;6.848;2023-02-12T06:09:01;6.80;99.90
20457;DHT22;10387;51.102;6.848;2023-02-12T06:11:27;6.90;99.90
20457;DHT22;10387;51.102;6.848;2023-02-12T06:13:53;6.80;99.90
20457;DHT22;10387;51.102;6.848;2023-02-12T06:16:26;6.80;99.90
20457;DHT22;10387;51.102;6.848;2023-02-12T06:18:53;6.80;99.90
20457;DHT22;10387;51.102;6.848;2023-02-12T06:21:20;6.90;99.90
20457;DHT22;10387;51.102;6.848;2023-02-12T06:23:47;6.80;99.90
20457;DHT22;10387;51.102;6.848;2023-02-12T06:26:13;6.80;99.90
20457;DHT22;10387;51.102;6.848;2023-02-12T06:28:39;6.70;99.90
20457;DHT22;10387;51.102;6.848;2023-02-12T06:31:05;6.70;99.90
20457;DHT22;10387;51.102;6.848;2023-02-12T06:33:39;6.70;99.90
20457;DHT22;10387;51.102;6.848;2023-02-12T06:36:05;6.60;99.90
20457;DHT22;10387;51.102;6.848;2023-02-12T06:38:33;6.70;99.90
20457;DHT22;10387;51.102;6.848;2023-02-12T06:41:01;6.70;99.90
20457;DHT22;10387;51.102;6.848;2023-02-12T06:43:26;6.70;99.90
20457;DHT22;10387;51.102;6.848;2023-02-12T06:45:52;6.60;99.90
20457;DHT22;10387;51.102;6.848;2023-02-12T06:48:18;6.70;99.90
20457;DHT22;10387;51.102;6.848;2023-02-12T06:50:43;6.60;99.90
20457;DHT22;10387;51.102;6.848;2023-02-12T06:53:09;6.60;99.90
20457;DHT22;10387;51.102;6.848;2023-02-12T06:55:35;6.70;99.90
20457;DHT22;10387;51.102;6.848;2023-02-12T06:58:00;6.70;99.90
20457;DHT22;10387;51.102;6.848;2023-02-12T07:00:26;6.70;99.90
20457;DHT22;10387;51.102;6.848;2023-02-12T07:02:55;6.70;99.90
20457;DHT22;10387;51.102;6.848;2023-02-12T07:05:21;6.50;99.90
20457;DHT22;10387;51.102;6.848;2023-02-12T07:07:48;6.50;99.90
20457;DHT22;10387;51.102;6.848;2023-02-12T07:10:15;6.50;99.90
20457;DHT22;10387;51.102;6.848;2023-02-12T07:12:41;6.40;99.90
20457;DHT22;10387;51.102;6.848;2023-02-12T07:15:07;6.30;99.90
20457;DHT22;10387;51.102;6.848;2023-02-12T07:17:32;6.30;99.90
20457;DHT22;10387;51.102;6.848;2023-02-12T07:19:58;6.30;99.90
20457;DHT22;10387;51.102;6.848;2023-02-12T07:22:24;6.30;99.90
20457;DHT22;10387;51.102;6.848;2023-02-12T07:24:49;6.40;99.90
20457;DHT22;10387;51.102;6.848;2023-02-12T07:27:16;6.50;99.90
20457;DHT22;10387;51.102;6.848;2023-02-12T07:29:42;6.60;99.90
20457;DHT22;10387;51.102;6.848;2023-02-12T07:32:08;6.50;99.90
20457;DHT22;10387;51.102;6.848;2023-02-12T07:34:33;6.60;99.90
20457;DHT22;10387;51.102;6.848;2023-02-12T07:36:59;6.50;99.90
20457;DHT22;10387;51.102;6.848;2023-02-12T07:39:24;6.50;99.90
20457;DHT22;10387;51.102;6.848;2023-02-12T07:41:50;6.50;99.90
20457;DHT22;10387;51.102;6.848;2023-02-12T07:44:16;6.60;99.90
20457;DHT22;10387;51.102;6.848;2023-02-12T07:46:44;6.70;99.90
20457;DHT22;10387;51.102;6.848;2023-02-12T07:49:16;6.70;99.90
20457;DHT22;10387;51.102;6.848;2023-02-12T07:51:41;6.80;99.90
20457;DHT22;10387;51.102;6.848;2023-02-12T07:54:08;6.90;99.90
20457;DHT22;10387;51.102;6.848;2023-02-12T07:56:36;7.00;99.90
20457;DHT22;10387;51.102;6.848;2023-02-12T07:59:06;7.10;99.90
20457;DHT22;10387;51.102;6.848;2023-02-12T08:01:34;7.10;99.90
20457;DHT22;10387;51.102;6.848;2023-02-12T08:04:06;7.10;99.90
20457;DHT22;10387;51.102;6.848;2023-02-12T08:06:35;7.20;99.90
20457;DHT22;10387;51.102;6.848;2023-02-12T08:09:03;7.20;99.90
20457;DHT22;10387;51.102;6.848;2023-02-12T08:11:29;7.20;99.90
20457;DHT22;10387;51.102;6.848;2023-02-12T08:13:55;7.20;99.90
20457;DHT22;10387;51.102;6.848;2023-02-12T08:16:23;7.20;99.90
20457;DHT22;10387;51.102;6.848;2023-02-12T08:18:49;7.20;99.90
20457;DHT22;10387;51.102;6.848;2023-02-12T08:21:24;7.20;99.90
20457;DHT22;10387;51.102;6.848;2023-02-12T08:23:52;7.20;99.90
20457;DHT22;10387;51.102;6.848;2023-02-12T08:26:24;7.20;99.90
20457;DHT22;10387;51.102;6.848;2023-02-12T08:29:05;7.30;99.90
20457;DHT22;10387;51.102;6.848;2023-02-12T08:31:40;7.30;99.90
20457;DHT22;10387;51.102;6.848;2023-02-12T08:34:06;7.30;99.90
20457;DHT22;10387;51.102;6.848;2023-02-12T08:36:39;7.30;99.90
20457;DHT22;10387;51.102;6.848;2023-02-12T08:39:06;7.40;99.90
20457;DHT22;10387;51.102;6.848;2023-02-12T08:41:32;7.40;99.90
20457;DHT22;10387;51.102;6.848;2023-02-12T08:44:00;7.50;99.90
20457;DHT22;10387;51.102;6.848;2023-02-12T08:46:29;7.60;99.90
20457;DHT22;10387;51.102;6.848;2023-02-12T08:49:03;7.60;99.90
20457;DHT22;10387;51.102;6.848;2023-02-12T08:51:34;7.70;99.90
20457;DHT22;10387;51.102;6.848;2023-02-12T08:54:03;7.80;99.90
20457;DHT22;10387;51.102;6.848;2023-02-12T08:56:31;7.90;99.90
20457;DHT22;10387;51.102;6.848;2023-02-12T08:58:59;7.90;99.90
20457;DHT22;10387;51.102;6.848;2023-02-12T09:01:27;8.00;99.90
20457;DHT22;10387;51.102;6.848;2023-02-12T09:03:53;8.10;99.90
20457;DHT22;10387;51.102;6.848;2023-02-12T09:06:21;8.20;99.90
20457;DHT22;10387;51.102;6.848;2023-02-12T09:08:47;8.30;99.90
20457;DHT22;10387;51.102;6.848;2023-02-12T09:11:23;8.30;99.90
20457;DHT22;10387;51.102;6.848;2023-02-12T09:13:51;8.40;99.90
20457;DHT22;10387;51.102;6.848;2023-02-12T09:16:18;8.50;99.90
20457;DHT22;10387;51.102;6.848;2023-02-12T09:18:43;8.50;99.90
20457;DHT22;10387;51.102;6.848;2023-02-12T09:21:12;8.60;99.90
20457;DHT22;10387;51.102;6.848;2023-02-12T09:23:39;8.60;99.90
20457;DHT22;10387;51.102;6.848;2023-02-12T09:26:07;8.60;99.90
20457;DHT22;10387;51.102;6.848;2023-02-12T09:28:34;8.70;99.90
20457;DHT22;10387;51.102;6.848;2023-02-12T09:31:11;8.80;99.90
20457;DHT22;10387;51.102;6.848;2023-02-12T09:33:38;8.90;99.90
20457;DHT22;10387;51.102;6.848;2023-02-12T09:36:07;8.90;99.90
20457;DHT22;10387;51.102;6.848;2023-02-12T09:38:34;8.80;99.90
20457;DHT22;10387;51.102;6.848;2023-02-12T09:41:11;8.90;99.90
20457;DHT22;10387;51.102;6.848;2023-02-12T09:46:29;8.90;99.90
20457;DHT22;10387;51.102;6.848;2023-02-12T09:49:13;8.90;99.90
20457;DHT22;10387;51.102;6.848;2023-02-12T09:51:51;9.00;99.90
20457;DHT22;10387;51.102;6.848;2023-02-12T09:54:26;9.00;99.90
20457;DHT22;10387;51.102;6.848;2023-02-12T09:56:58;9.10;99.90
20457;DHT22;10387;51.102;6.848;2023-02-12T09:59:34;9.10;99.90
20457;DHT22;10387;51.102;6.848;2023-02-12T10:02:00;9.20;99.90
20457;DHT22;10387;51.102;6.848;2023-02-12T10:04:27;9.20;99.90
20457;DHT22;10387;51.102;6.848;2023-02-12T10:07:19;9.20;99.90
20457;DHT22;10387;51.102;6.848;2023-02-12T10:15:26;9.40;99.90
20457;DHT22;10387;51.102;6.848;2023-02-12T10:18:17;9.50;99.90
20457;DHT22;10387;51.102;6.848;2023-02-12T10:26:29;9.70;99.90
20457;DHT22;10387;51.102;6.848;2023-02-12T10:29:00;9.80;99.90
20457;DHT22;10387;51.102;6.848;2023-02-12T10:31:33;9.90;99.90
20457;DHT22;10387;51.102;6.848;2023-02-12T10:34:05;10.00;99.90
20457;DHT22;10387;51.102;6.848;2023-02-12T10:36:49;10.00;99.90
20457;DHT22;10387;51.102;6.848;2023-02-12T10:41:50;10.20;99.90
20457;DHT22;10387;51.102;6.848;2023-02-12T10:44:16;10.30;99.90
20457;DHT22;10387;51.102;6.848;2023-02-12T10:46:42;10.30;99.90
20457;DHT22;10387;51.102;6.848;2023-02-12T10:49:10;10.30;99.90
20457;DHT22;10387;51.102;6.848;2023-02-12T10:57:12;10.70;99.90
20457;DHT22;10387;51.102;6.848;2023-02-12T10:59:40;10.70;99.90
20457;DHT22;10387;51.102;6.848;2023-02-12T11:04:47;10.80;99.90
20457;DHT22;10387;51.102;6.848;2023-02-12T11:07:13;10.80;99.90
20457;DHT22;10387;51.102;6.848;2023-02-12T11:09:39;10.90;99.90
20457;DHT22;10387;51.102;6.848;2023-02-12T11:14:54;11.20;99.90
20457;DHT22;10387;51.102;6.848;2023-02-12T11:17:34;11.10;99.90
20457;DHT22;10387;51.102;6.848;2023-02-12T11:25:16;11.20;99.90
20457;DHT22;10387;51.102;6.848;2023-02-12T11:27:43;11.20;99.90
20457;DHT22;10387;51.102;6.848;2023-02-12T11:30:18;11.20;99.90
20457;DHT22;10387;51.102;6.848;2023-02-12T11:32:44;11.20;99.90
20457;DHT22;10387;51.102;6.848;2023-02-12T11:35:15;11.10;99.90
20457;DHT22;10387;51.102;6.848;2023-02-12T11:37:49;11.10;99.90
20457;DHT22;10387;51.102;6.848;2023-02-12T11:40:21;11.20;99.90
20457;DHT22;10387;51.102;6.848;2023-02-12T11:42:57;11.30;99.90
20457;DHT22;10387;51.102;6.848;2023-02-12T11:45:35;11.20;99.90
20457;DHT22;10387;51.102;6.848;2023-02-12T11:48:01;11.30;99.90
20457;DHT22;10387;51.102;6.848;2023-02-12T11:50:29;11.30;99.90
20457;DHT22;10387;51.102;6.848;2023-02-12T11:53:04;11.40;99.90
20457;DHT22;10387;51.102;6.848;2023-02-12T11:55:35;11.30;99.90
20457;DHT22;10387;51.102;6.848;2023-02-12T11:58:16;11.40;99.90
20457;DHT22;10387;51.102;6.848;2023-02-12T12:11:49;11.20;99.90
20457;DHT22;10387;51.102;6.848;2023-02-12T12:14:27;11.10;99.90
20457;DHT22;10387;51.102;6.848;2023-02-12T12:17:12;11.00;99.90
20457;DHT22;10387;51.102;6.848;2023-02-12T12:20:13;11.00;99.90
20457;DHT22;10387;51.102;6.848;2023-02-12T12:23:08;11.00;99.90
20457;DHT22;10387;51.102;6.848;2023-02-12T12:25:52;11.10;99.90
20457;DHT22;10387;51.102;6.848;2023-02-12T12:31:11;11.30;99.90
20457;DHT22;10387;51.102;6.848;2023-02-12T12:33:45;11.40;99.90
20457;DHT22;10387;51.102;6.848;2023-02-12T12:36:30;11.50;99.90
20457;DHT22;10387;51.102;6.848;2023-02-12T12:41:56;11.30;99.90
20457;DHT22;10387;51.102;6.848;2023-02-12T12:58:27;11.50;99.90
20457;DHT22;10387;51.102;6.848;2023-02-12T13:15:08;11.40;99.90
20457;DHT22;10387;51.102;6.848;2023-02-12T13:18:09;11.50;99.90
20457;DHT22;10387;51.102;6.848;2023-02-12T13:23:19;11.50;99.90
20457;DHT22;10387;51.102;6.848;2023-02-12T13:26:38;11.40;99.90
20457;DHT22;10387;51.102;6.848;2023-02-12T13:28:47;11.50;99.90
20457;DHT22;10387;51.102;6.848;2023-02-12T13:31:21;11.60;99.90
20457;DHT22;10387;51.102;6.848;2023-02-12T13:33:51;11.70;99.90
20457;DHT22;10387;51.102;6.848;2023-02-12T13:36:17;11.70;99.90
20457;DHT22;10387;51.102;6.848;2023-02-12T13:38:49;11.70;99.90
20457;DHT22;10387;51.102;6.848;2023-02-12T13:41:16;11.60;99.90
20457;DHT22;10387;51.102;6.848;2023-02-12T13:44:00;11.50;99.90
20457;DHT22;10387;51.102;6.848;2023-02-12T13:57:07;11.60;99.90
20457;DHT22;10387;51.102;6.848;2023-02-12T14:05:13;11.50;99.90
20457;DHT22;10387;51.102;6.848;2023-02-12T14:07:48;11.40;99.90
20457;DHT22;10387;51.102;6.848;2023-02-12T14:10:36;11.60;99.90
20457;DHT22;10387;51.102;6.848;2023-02-12T14:13:22;11.60;99.90
20457;DHT22;10387;51.102;6.848;2023-02-12T14:15:54;11.60;99.90
20457;DHT22;10387;51.102;6.848;2023-02-12T14:18:34;11.60;99.90
20457;DHT22;10387;51.102;6.848;2023-02-12T14:23:42;11.60;99.90
20457;DHT22;10387;51.102;6.848;2023-02-12T14:26:13;11.60;99.90
20457;DHT22;10387;51.102;6.848;2023-02-12T14:28:59;11.60;99.90
20457;DHT22;10387;51.102;6.848;2023-02-12T14:36:45;11.50;99.90
20457;DHT22;10387;51.102;6.848;2023-02-12T14:41:51;11.40;99.90
20457;DHT22;10387;51.102;6.848;2023-02-12T14:49:45;11.30;99.90
20457;DHT22;10387;51.102;6.848;2023-02-12T14:52:18;11.20;99.90
20457;DHT22;10387;51.102;6.848;2023-02-12T14:54:49;11.10;99.90
20457;DHT22;10387;51.102;6.848;2023-02-12T14:57:36;11.00;99.90
20457;DHT22;10387;51.102;6.848;2023-02-12T15:00:29;10.90;99.90
20457;DHT22;10387;51.102;6.848;2023-02-12T15:03:19;10.90;99.90
20457;DHT22;10387;51.102;6.848;2023-02-12T15:06:11;10.90;99.90
20457;DHT22;10387;51.102;6.848;2023-02-12T15:09:01;10.80;99.90
20457;DHT22;10387;51.102;6.848;2023-02-12T15:14:34;10.90;99.90
20457;DHT22;10387;51.102;6.848;2023-02-12T15:19:57;10.80;99.90
20457;DHT22;10387;51.102;6.848;2023-02-12T15:22:39;10.80;99.90
20457;DHT22;10387;51.102;6.848;2023-02-12T15:25:29;10.80;99.90
20457;DHT22;10387;51.102;6.848;2023-02-12T15:28:29;10.70;99.90
20457;DHT22;10387;51.102;6.848;2023-02-12T15:31:04;10.60;99.90
20457;DHT22;10387;51.102;6.848;2023-02-12T15:33:36;10.70;99.90
20457;DHT22;10387;51.102;6.848;2023-02-12T15:36:04;10.60;99.90
20457;DHT22;10387;51.102;6.848;2023-02-12T15:38:37;10.60;99.90
20457;DHT22;10387;51.102;6.848;2023-02-12T15:41:05;10.50;99.90
20457;DHT22;10387;51.102;6.848;2023-02-12T15:43:32;10.50;99.90
20457;DHT22;10387;51.102;6.848;2023-02-12T15:46:04;10.40;99.90
20457;DHT22;10387;51.102;6.848;2023-02-12T15:48:35;10.40;99.90
20457;DHT22;10387;51.102;6.848;2023-02-12T15:51:15;10.40;99.90
20457;DHT22;10387;51.102;6.848;2023-02-12T15:53:43;10.30;99.90
20457;DHT22;10387;51.102;6.848;2023-02-12T15:56:18;10.30;99.90
20457;DHT22;10387;51.102;6.848;2023-02-12T15:58:55;10.30;99.90
20457;DHT22;10387;51.102;6.848;2023-02-12T16:01:24;10.30;99.90
20457;DHT22;10387;51.102;6.848;2023-02-12T16:03:55;10.30;99.90
20457;DHT22;10387;51.102;6.848;2023-02-12T16:06:23;10.30;99.90
20457;DHT22;10387;51.102;6.848;2023-02-12T16:08:55;10.30;99.90
20457;DHT22;10387;51.102;6.848;2023-02-12T16:11:23;10.20;99.90
20457;DHT22;10387;51.102;6.848;2023-02-12T16:13:57;10.20;99.90
20457;DHT22;10387;51.102;6.848;2023-02-12T16:22:04;10.10;99.90
20457;DHT22;10387;51.102;6.848;2023-02-12T16:24:38;10.10;99.90
20457;DHT22;10387;51.102;6.848;2023-02-12T16:29:52;10.20;99.90
20457;DHT22;10387;51.102;6.848;2023-02-12T16:32:28;10.20;99.90
20457;DHT22;10387;51.102;6.848;2023-02-12T16:43:02;10.10;99.90
20457;DHT22;10387;51.102;6.848;2023-02-12T16:48:05;9.90;99.90
20457;DHT22;10387;51.102;6.848;2023-02-12T16:50:32;9.80;99.90
20457;DHT22;10387;51.102;6.848;2023-02-12T16:53:01;9.70;99.90
20457;DHT22;10387;51.102;6.848;2023-02-12T16:55:27;9.70;99.90
20457;DHT22;10387;51.102;6.848;2023-02-12T16:57:53;9.70;99.90
20457;DHT22;10387;51.102;6.848;2023-02-12T17:00:19;9.70;99.90
20457;DHT22;10387;51.102;6.848;2023-02-12T17:02:45;9.60;99.90
20457;DHT22;10387;51.102;6.848;2023-02-12T17:05:12;9.70;99.90
20457;DHT22;10387;51.102;6.848;2023-02-12T17:07:39;9.70;99.90
20457;DHT22;10387;51.102;6.848;2023-02-12T17:10:07;9.60;99.90
20457;DHT22;10387;51.102;6.848;2023-02-12T17:12:32;9.60;99.90
20457;DHT22;10387;51.102;6.848;2023-02-12T17:15:03;9.60;99.90
20457;DHT22;10387;51.102;6.848;2023-02-12T17:17:28;9.60;99.90
20457;DHT22;10387;51.102;6.848;2023-02-12T17:19:54;9.60;99.90
20457;DHT22;10387;51.102;6.848;2023-02-12T17:22:23;9.60;99.90
20457;DHT22;10387;51.102;6.848;2023-02-12T17:24:49;9.60;99.90
20457;DHT22;10387;51.102;6.848;2023-02-12T17:27:19;9.60;99.90
20457;DHT22;10387;51.102;6.848;2023-02-12T17:29:45;9.60;99.90
20457;DHT22;10387;51.102;6.848;2023-02-12T17:32:11;9.60;99.90
20457;DHT22;10387;51.102;6.848;2023-02-12T17:34:37;9.60;99.90
20457;DHT22;10387;51.102;6.848;2023-02-12T17:37:04;9.60;99.90
20457;DHT22;10387;51.102;6.848;2023-02-12T17:39:29;9.60;99.90
20457;DHT22;10387;51.102;6.848;2023-02-12T17:41:55;9.60;99.90
20457;DHT22;10387;51.102;6.848;2023-02-12T17:44:24;9.50;99.90
20457;DHT22;10387;51.102;6.848;2023-02-12T17:46:50;9.50;99.90
20457;DHT22;10387;51.102;6.848;2023-02-12T17:49:16;9.40;99.90
20457;DHT22;10387;51.102;6.848;2023-02-12T17:51:43;9.40;99.90
20457;DHT22;10387;51.102;6.848;2023-02-12T17:54:09;9.30;99.90
20457;DHT22;10387;51.102;6.848;2023-02-12T17:56:34;9.30;99.90
20457;DHT22;10387;51.102;6.848;2023-02-12T17:59:00;9.30;99.90
20457;DHT22;10387;51.102;6.848;2023-02-12T18:01:27;9.30;99.90
20457;DHT22;10387;51.102;6.848;2023-02-12T18:03:52;9.30;99.90
20457;DHT22;10387;51.102;6.848;2023-02-12T18:06:27;9.30;99.90
20457;DHT22;10387;51.102;6.848;2023-02-12T18:08:55;9.30;99.90
20457;DHT22;10387;51.102;6.848;2023-02-12T18:11:21;9.30;99.90
20457;DHT22;10387;51.102;6.848;2023-02-12T18:13:51;9.30;99.90
20457;DHT22;10387;51.102;6.848;2023-02-12T18:16:17;9.20;99.90
20457;DHT22;10387;51.102;6.848;2023-02-12T18:18:43;9.10;99.90
20457;DHT22;10387;51.102;6.848;2023-02-12T18:21:10;9.10;99.90
20457;DHT22;10387;51.102;6.848;2023-02-12T18:23:36;9.10;99.90
20457;DHT22;10387;51.102;6.848;2023-02-12T18:26:21;9.20;99.90
20457;DHT22;10387;51.102;6.848;2023-02-12T18:28:47;9.20;99.90
20457;DHT22;10387;51.102;6.848;2023-02-12T18:31:13;9.20;99.90
20457;DHT22;10387;51.102;6.848;2023-02-12T18:33:40;9.10;99.90
20457;DHT22;10387;51.102;6.848;2023-02-12T18:36:12;9.10;99.90
20457;DHT22;10387;51.102;6.848;2023-02-12T18:38:49;9.00;99.90
20457;DHT22;10387;51.102;6.848;2023-02-12T18:41:18;9.00;99.90
20457;DHT22;10387;51.102;6.848;2023-02-12T18:43:44;8.90;99.90
20457;DHT22;10387;51.102;6.848;2023-02-12T18:46:26;8.90;99.90
20457;DHT22;10387;51.102;6.848;2023-02-12T18:48:52;8.90;99.90
20457;DHT22;10387;51.102;6.848;2023-02-12T18:51:21;8.90;99.90
20457;DHT22;10387;51.102;6.848;2023-02-12T18:53:54;8.90;99.90
20457;DHT22;10387;51.102;6.848;2023-02-12T18:56:20;8.90;99.90
20457;DHT22;10387;51.102;6.848;2023-02-12T18:58:46;8.90;99.90
20457;DHT22;10387;51.102;6.848;2023-02-12T19:01:14;9.00;99.90
20457;DHT22;10387;51.102;6.848;2023-02-12T19:03:40;9.00;99.90